N60CG KEYW-KTLH
Flight info
| Callsign | N60CG |
|---|---|
| Flight time | 1h 45m |
| Altitude | 16000 |
| Route | BUFTT1 GUFFS GOODY V359 RSW V35 PIE V97 WOUND |
| Aircraft | TBM9/L-VGDW/C |
Departure
| Time | 2026-04-29 22:25 |
|---|---|
| Airport | Key West International Airport (KEYW) |
Arrival
| Time | 2026-04-30 00:10 |
|---|---|
| Airport | Tallahassee International Airport (KTLH) |
| Time | Latitude | Longitude | Altitude | Speed | Heading |
|---|---|---|---|---|---|
| 2026-04-29 22:09 | 24.55471 | -81.75491 | 7 ft | 0 kts | 227° |
| 2026-04-29 22:19 | 24.55473 | -81.75489 | 7 ft | 1 kts | 233° |
| 2026-04-29 22:20 | 24.55475 | -81.75484 | 7 ft | 0 kts | 261° |
| 2026-04-29 22:20 | 24.55475 | -81.75486 | 7 ft | 2 kts | 267° |
| 2026-04-29 22:20 | 24.55495 | -81.75515 | 7 ft | 8 kts | 330° |
| 2026-04-29 22:21 | 24.55532 | -81.75551 | 7 ft | 10 kts | 274° |
| 2026-04-29 22:21 | 24.55530 | -81.75660 | 7 ft | 17 kts | 268° |
| 2026-04-29 22:21 | 24.55529 | -81.75809 | 7 ft | 21 kts | 269° |
| 2026-04-29 22:21 | 24.55527 | -81.75952 | 7 ft | 17 kts | 269° |
| 2026-04-29 22:22 | 24.55525 | -81.76077 | 7 ft | 19 kts | 269° |
| 2026-04-29 22:22 | 24.55523 | -81.76249 | 7 ft | 26 kts | 269° |
| 2026-04-29 22:22 | 24.55522 | -81.76421 | 6 ft | 19 kts | 270° |
| 2026-04-29 22:22 | 24.55518 | -81.76586 | 6 ft | 17 kts | 269° |
| 2026-04-29 22:23 | 24.55531 | -81.76637 | 6 ft | 0 kts | 308° |
| 2026-04-29 22:23 | 24.55532 | -81.76638 | 6 ft | 0 kts | 308° |
| 2026-04-29 22:23 | 24.55538 | -81.76645 | 6 ft | 6 kts | 315° |
| 2026-04-29 22:23 | 24.55606 | -81.76641 | 6 ft | 13 kts | 59° |
| 2026-04-29 22:24 | 24.55609 | -81.76626 | 6 ft | 1 kts | 87° |
| 2026-04-29 22:24 | 24.55610 | -81.76557 | 5 ft | 26 kts | 90° |
| 2026-04-29 22:24 | 24.55614 | -81.76134 | 6 ft | 83 kts | 90° |
| 2026-04-29 22:24 | 24.55633 | -81.75337 | 85 ft | 120 kts | 88° |
| 2026-04-29 22:25 | 24.55952 | -81.74481 | 449 ft | 132 kts | 41° |
| 2026-04-29 22:25 | 24.56792 | -81.73961 | 794 ft | 144 kts | 26° |
| 2026-04-29 22:25 | 24.57828 | -81.73711 | 1005 ft | 163 kts | 356° |
| 2026-04-29 22:25 | 24.58988 | -81.73818 | 1300 ft | 171 kts | 6° |
| 2026-04-29 22:26 | 24.60187 | -81.73581 | 1573 ft | 178 kts | 13° |
| 2026-04-29 22:26 | 24.61420 | -81.73304 | 1855 ft | 183 kts | 13° |
| 2026-04-29 22:26 | 24.62671 | -81.73067 | 2142 ft | 186 kts | 7° |
| 2026-04-29 22:26 | 24.63974 | -81.72937 | 2437 ft | 189 kts | 7° |
| 2026-04-29 22:27 | 24.65283 | -81.72777 | 2732 ft | 190 kts | 8° |
| 2026-04-29 22:27 | 24.66598 | -81.72599 | 3025 ft | 191 kts | 8° |
| 2026-04-29 22:27 | 24.67915 | -81.72419 | 3318 ft | 191 kts | 8° |
| 2026-04-29 22:27 | 24.69235 | -81.72240 | 3616 ft | 191 kts | 8° |
| 2026-04-29 22:28 | 24.70559 | -81.72059 | 3903 ft | 192 kts | 8° |
| 2026-04-29 22:28 | 24.71854 | -81.71737 | 4191 ft | 193 kts | 25° |
| 2026-04-29 22:28 | 24.72966 | -81.70908 | 4492 ft | 195 kts | 45° |
| 2026-04-29 22:28 | 24.73901 | -81.69804 | 4796 ft | 198 kts | 47° |
| 2026-04-29 22:29 | 24.74534 | -81.69071 | 4972 ft | 201 kts | 46° |
| 2026-04-29 22:29 | 24.75881 | -81.67510 | 4992 ft | 218 kts | 46° |
| 2026-04-29 22:29 | 24.76938 | -81.66277 | 5001 ft | 224 kts | 47° |
| 2026-04-29 22:29 | 24.78018 | -81.65014 | 4999 ft | 228 kts | 46° |
| 2026-04-29 22:30 | 24.79113 | -81.63737 | 4996 ft | 230 kts | 46° |
| 2026-04-29 22:30 | 24.80214 | -81.62451 | 4997 ft | 231 kts | 46° |
| 2026-04-29 22:30 | 24.81305 | -81.61179 | 4996 ft | 232 kts | 47° |
| 2026-04-29 22:30 | 24.82416 | -81.59887 | 4995 ft | 232 kts | 45° |
| 2026-04-29 22:31 | 24.83724 | -81.58859 | 4991 ft | 232 kts | 27° |
| 2026-04-29 22:31 | 24.85243 | -81.58240 | 4995 ft | 233 kts | 18° |
| 2026-04-29 22:31 | 24.86784 | -81.57692 | 4993 ft | 233 kts | 19° |
| 2026-04-29 22:31 | 24.88320 | -81.57129 | 4990 ft | 233 kts | 19° |
| 2026-04-29 22:32 | 24.89862 | -81.56572 | 4992 ft | 233 kts | 19° |
| 2026-04-29 22:32 | 24.91402 | -81.56018 | 4990 ft | 233 kts | 19° |
| 2026-04-29 22:32 | 24.92426 | -81.55648 | 4992 ft | 233 kts | 19° |
| 2026-04-29 22:32 | 24.94466 | -81.54912 | 4992 ft | 233 kts | 19° |
| 2026-04-29 22:33 | 24.96001 | -81.54356 | 4994 ft | 233 kts | 19° |
| 2026-04-29 22:33 | 24.97545 | -81.53799 | 4991 ft | 233 kts | 19° |
| 2026-04-29 22:33 | 24.98584 | -81.53424 | 4990 ft | 233 kts | 19° |
| 2026-04-29 22:33 | 25.00128 | -81.52865 | 4991 ft | 233 kts | 19° |
| 2026-04-29 22:34 | 25.01669 | -81.52309 | 4990 ft | 233 kts | 19° |
| 2026-04-29 22:34 | 25.03209 | -81.51751 | 4991 ft | 233 kts | 19° |
| 2026-04-29 22:34 | 25.04731 | -81.51201 | 4991 ft | 233 kts | 19° |
| 2026-04-29 22:34 | 25.06269 | -81.50645 | 4989 ft | 232 kts | 19° |
| 2026-04-29 22:35 | 25.07808 | -81.50087 | 4990 ft | 232 kts | 19° |
| 2026-04-29 22:35 | 25.09341 | -81.49532 | 4987 ft | 232 kts | 19° |
| 2026-04-29 22:35 | 25.10880 | -81.48975 | 4988 ft | 232 kts | 19° |
| 2026-04-29 22:35 | 25.12414 | -81.48420 | 4987 ft | 232 kts | 19° |
| 2026-04-29 22:36 | 25.13934 | -81.47869 | 5132 ft | 226 kts | 19° |
| 2026-04-29 22:36 | 25.15413 | -81.47333 | 5326 ft | 222 kts | 19° |
| 2026-04-29 22:36 | 25.16876 | -81.46803 | 5516 ft | 220 kts | 19° |
| 2026-04-29 22:36 | 25.18322 | -81.46278 | 5713 ft | 219 kts | 19° |
| 2026-04-29 22:37 | 25.19769 | -81.45753 | 5907 ft | 218 kts | 19° |
| 2026-04-29 22:37 | 25.21211 | -81.45230 | 6106 ft | 218 kts | 19° |
| 2026-04-29 22:37 | 25.22652 | -81.44707 | 6298 ft | 218 kts | 19° |
| 2026-04-29 22:37 | 25.24074 | -81.44191 | 6490 ft | 218 kts | 19° |
| 2026-04-29 22:38 | 25.25519 | -81.43666 | 6674 ft | 218 kts | 19° |
| 2026-04-29 22:38 | 25.26961 | -81.43143 | 6860 ft | 218 kts | 19° |
| 2026-04-29 22:38 | 25.28404 | -81.42618 | 7049 ft | 219 kts | 19° |
| 2026-04-29 22:38 | 25.29851 | -81.42093 | 7238 ft | 219 kts | 19° |
| 2026-04-29 22:39 | 25.31302 | -81.41565 | 7429 ft | 219 kts | 19° |
| 2026-04-29 22:39 | 25.32748 | -81.41040 | 7618 ft | 219 kts | 19° |
| 2026-04-29 22:39 | 25.34203 | -81.40511 | 7806 ft | 220 kts | 19° |
| 2026-04-29 22:39 | 25.35655 | -81.39982 | 8001 ft | 220 kts | 19° |
| 2026-04-29 22:40 | 25.37108 | -81.39454 | 8197 ft | 220 kts | 19° |
| 2026-04-29 22:40 | 25.38561 | -81.38925 | 8390 ft | 220 kts | 19° |
| 2026-04-29 22:40 | 25.40015 | -81.38396 | 8589 ft | 220 kts | 19° |
| 2026-04-29 22:40 | 25.41471 | -81.37865 | 8786 ft | 220 kts | 19° |
| 2026-04-29 22:41 | 25.42913 | -81.37341 | 8981 ft | 221 kts | 19° |
| 2026-04-29 22:41 | 25.44392 | -81.36802 | 9189 ft | 221 kts | 19° |
| 2026-04-29 22:41 | 25.45853 | -81.36270 | 9387 ft | 221 kts | 19° |
| 2026-04-29 22:41 | 25.47316 | -81.35842 | 9586 ft | 222 kts | 8° |
| 2026-04-29 22:42 | 25.48862 | -81.35872 | 9794 ft | 224 kts | 353° |
| 2026-04-29 22:42 | 25.50361 | -81.36375 | 9986 ft | 227 kts | 338° |
| 2026-04-29 22:42 | 25.51726 | -81.37268 | 10166 ft | 228 kts | 330° |
| 2026-04-29 22:42 | 25.53079 | -81.38192 | 10355 ft | 229 kts | 332° |
| 2026-04-29 22:43 | 25.54440 | -81.39117 | 10541 ft | 229 kts | 331° |
| 2026-04-29 22:43 | 25.55797 | -81.40046 | 10727 ft | 229 kts | 331° |
| 2026-04-29 22:43 | 25.57155 | -81.40979 | 10914 ft | 230 kts | 331° |
| 2026-04-29 22:43 | 25.58516 | -81.41911 | 11103 ft | 230 kts | 331° |
| 2026-04-29 22:44 | 25.59879 | -81.42846 | 11292 ft | 230 kts | 331° |
| 2026-04-29 22:44 | 25.61243 | -81.43781 | 11482 ft | 231 kts | 331° |
| 2026-04-29 22:44 | 25.62611 | -81.44719 | 11675 ft | 231 kts | 331° |
| 2026-04-29 22:44 | 25.63978 | -81.45656 | 11867 ft | 231 kts | 331° |
| 2026-04-29 22:45 | 25.65332 | -81.46586 | 12060 ft | 231 kts | 331° |
| 2026-04-29 22:45 | 25.66702 | -81.47526 | 12254 ft | 232 kts | 331° |
| 2026-04-29 22:45 | 25.68073 | -81.48468 | 12450 ft | 232 kts | 331° |
| 2026-04-29 22:45 | 25.69447 | -81.49411 | 12646 ft | 232 kts | 331° |
| 2026-04-29 22:46 | 25.70822 | -81.50356 | 12850 ft | 233 kts | 330° |
| 2026-04-29 22:46 | 25.72199 | -81.51302 | 13050 ft | 233 kts | 330° |
| 2026-04-29 22:46 | 25.73578 | -81.52250 | 13250 ft | 233 kts | 330° |
| 2026-04-29 22:46 | 25.74958 | -81.53200 | 13452 ft | 234 kts | 330° |
| 2026-04-29 22:47 | 25.76342 | -81.54150 | 13660 ft | 234 kts | 330° |
| 2026-04-29 22:47 | 25.77727 | -81.55103 | 13854 ft | 234 kts | 330° |
| 2026-04-29 22:47 | 25.79113 | -81.56057 | 14036 ft | 235 kts | 330° |
| 2026-04-29 22:47 | 25.80500 | -81.57012 | 14217 ft | 235 kts | 330° |
| 2026-04-29 22:48 | 25.81892 | -81.57970 | 14401 ft | 235 kts | 330° |
| 2026-04-29 22:48 | 25.83265 | -81.58916 | 14584 ft | 235 kts | 330° |
| 2026-04-29 22:48 | 25.84655 | -81.59873 | 14765 ft | 235 kts | 330° |
| 2026-04-29 22:48 | 25.86047 | -81.60833 | 14954 ft | 236 kts | 330° |
| 2026-04-29 22:49 | 25.87444 | -81.61785 | 15145 ft | 235 kts | 332° |
| 2026-04-29 22:49 | 25.88964 | -81.62425 | 15329 ft | 234 kts | 348° |
| 2026-04-29 22:49 | 25.90575 | -81.62656 | 15519 ft | 233 kts | 355° |
| 2026-04-29 22:49 | 25.92197 | -81.62830 | 15711 ft | 234 kts | 354° |
| 2026-04-29 22:50 | 25.93819 | -81.63017 | 15904 ft | 235 kts | 354° |
| 2026-04-29 22:50 | 25.95454 | -81.63197 | 15996 ft | 239 kts | 355° |
| 2026-04-29 22:50 | 25.97141 | -81.63382 | 15996 ft | 247 kts | 354° |
| 2026-04-29 22:50 | 25.98846 | -81.63742 | 16002 ft | 252 kts | 347° |
| 2026-04-29 22:51 | 26.00569 | -81.64195 | 16003 ft | 256 kts | 348° |
| 2026-04-29 22:51 | 26.02319 | -81.64635 | 16010 ft | 259 kts | 348° |
| 2026-04-29 22:51 | 26.05845 | -81.65527 | 16008 ft | 262 kts | 347° |
| 2026-04-29 22:52 | 26.07627 | -81.65983 | 16008 ft | 263 kts | 347° |
| 2026-04-29 22:52 | 26.09413 | -81.66438 | 16003 ft | 263 kts | 347° |
| 2026-04-29 22:52 | 26.11199 | -81.66892 | 15998 ft | 264 kts | 347° |
| 2026-04-29 22:52 | 26.12995 | -81.67349 | 15998 ft | 264 kts | 347° |
| 2026-04-29 22:53 | 26.14792 | -81.67808 | 15999 ft | 265 kts | 347° |
| 2026-04-29 22:53 | 26.16588 | -81.68265 | 16000 ft | 265 kts | 347° |
| 2026-04-29 22:53 | 26.18391 | -81.68724 | 16000 ft | 265 kts | 347° |
| 2026-04-29 22:53 | 26.20190 | -81.69185 | 16001 ft | 265 kts | 347° |
| 2026-04-29 22:54 | 26.21969 | -81.69638 | 15997 ft | 265 kts | 347° |
| 2026-04-29 22:54 | 26.23793 | -81.70104 | 15997 ft | 265 kts | 347° |
| 2026-04-29 22:54 | 26.25592 | -81.70565 | 15996 ft | 265 kts | 347° |
| 2026-04-29 22:54 | 26.27365 | -81.71016 | 15991 ft | 265 kts | 347° |
| 2026-04-29 22:55 | 26.29165 | -81.71476 | 15997 ft | 265 kts | 347° |
| 2026-04-29 22:55 | 26.30966 | -81.71936 | 15994 ft | 265 kts | 347° |
| 2026-04-29 22:55 | 26.32770 | -81.72397 | 15996 ft | 265 kts | 347° |
| 2026-04-29 22:55 | 26.34573 | -81.72859 | 15985 ft | 266 kts | 347° |
| 2026-04-29 22:56 | 26.36373 | -81.73318 | 15992 ft | 266 kts | 347° |
| 2026-04-29 22:56 | 26.38171 | -81.73779 | 15989 ft | 266 kts | 347° |
| 2026-04-29 22:56 | 26.39978 | -81.74240 | 15983 ft | 266 kts | 347° |
| 2026-04-29 22:56 | 26.41780 | -81.74702 | 15986 ft | 266 kts | 347° |
| 2026-04-29 22:57 | 26.43586 | -81.75165 | 15980 ft | 266 kts | 347° |
| 2026-04-29 22:57 | 26.45390 | -81.75628 | 15982 ft | 266 kts | 347° |
| 2026-04-29 22:57 | 26.47190 | -81.76091 | 15984 ft | 266 kts | 347° |
| 2026-04-29 22:57 | 26.49001 | -81.76553 | 15983 ft | 267 kts | 347° |
| 2026-04-29 22:58 | 26.50786 | -81.77011 | 15987 ft | 266 kts | 347° |
| 2026-04-29 22:58 | 26.52576 | -81.77532 | 15988 ft | 266 kts | 340° |
| 2026-04-29 22:58 | 26.54222 | -81.78482 | 15984 ft | 267 kts | 328° |
| 2026-04-29 22:58 | 26.55764 | -81.79641 | 15984 ft | 267 kts | 327° |
| 2026-04-29 22:59 | 26.57318 | -81.80786 | 15984 ft | 268 kts | 328° |
| 2026-04-29 22:59 | 26.58873 | -81.81934 | 15983 ft | 267 kts | 328° |
| 2026-04-29 22:59 | 26.60426 | -81.83088 | 15975 ft | 267 kts | 327° |
| 2026-04-29 22:59 | 26.61976 | -81.84239 | 15973 ft | 267 kts | 328° |
| 2026-04-29 23:00 | 26.63526 | -81.85389 | 15971 ft | 267 kts | 327° |
| 2026-04-29 23:00 | 26.65077 | -81.86541 | 15974 ft | 268 kts | 327° |
| 2026-04-29 23:00 | 26.66629 | -81.87693 | 15973 ft | 268 kts | 328° |
| 2026-04-29 23:00 | 26.68181 | -81.88845 | 15972 ft | 268 kts | 327° |
| 2026-04-29 23:01 | 26.69733 | -81.90001 | 15974 ft | 268 kts | 327° |
| 2026-04-29 23:01 | 26.71269 | -81.91141 | 15977 ft | 268 kts | 327° |
| 2026-04-29 23:01 | 26.72821 | -81.92295 | 15976 ft | 268 kts | 327° |
| 2026-04-29 23:01 | 26.74374 | -81.93451 | 15972 ft | 268 kts | 328° |
| 2026-04-29 23:02 | 26.75928 | -81.94607 | 15990 ft | 268 kts | 327° |
| 2026-04-29 23:02 | 26.77479 | -81.95763 | 15988 ft | 268 kts | 328° |
| 2026-04-29 23:02 | 26.79029 | -81.96917 | 15989 ft | 267 kts | 327° |
| 2026-04-29 23:02 | 26.80576 | -81.98068 | 15986 ft | 267 kts | 328° |
| 2026-04-29 23:03 | 26.82120 | -81.99219 | 15987 ft | 267 kts | 328° |
| 2026-04-29 23:03 | 26.83664 | -82.00369 | 15984 ft | 266 kts | 328° |
| 2026-04-29 23:03 | 26.85210 | -82.01521 | 15983 ft | 266 kts | 328° |
| 2026-04-29 23:03 | 26.86753 | -82.02672 | 15983 ft | 267 kts | 328° |
| 2026-04-29 23:04 | 26.88300 | -82.03827 | 15982 ft | 266 kts | 328° |
| 2026-04-29 23:04 | 26.89843 | -82.04977 | 15982 ft | 266 kts | 328° |
| 2026-04-29 23:04 | 26.91368 | -82.06116 | 15988 ft | 266 kts | 328° |
| 2026-04-29 23:04 | 26.92912 | -82.07268 | 15989 ft | 267 kts | 328° |
| 2026-04-29 23:05 | 26.94458 | -82.08424 | 15992 ft | 266 kts | 328° |
| 2026-04-29 23:05 | 26.95998 | -82.09576 | 15989 ft | 266 kts | 328° |
| 2026-04-29 23:05 | 26.97544 | -82.10732 | 15992 ft | 267 kts | 328° |
| 2026-04-29 23:05 | 26.99088 | -82.11887 | 15993 ft | 267 kts | 328° |
| 2026-04-29 23:06 | 27.00631 | -82.13042 | 15995 ft | 266 kts | 328° |
| 2026-04-29 23:06 | 27.02173 | -82.14195 | 15995 ft | 266 kts | 328° |
| 2026-04-29 23:06 | 27.03714 | -82.15347 | 15998 ft | 266 kts | 328° |
| 2026-04-29 23:06 | 27.05236 | -82.16488 | 15999 ft | 266 kts | 328° |
| 2026-04-29 23:07 | 27.06795 | -82.17657 | 15996 ft | 266 kts | 328° |
| 2026-04-29 23:07 | 27.08333 | -82.18810 | 15994 ft | 266 kts | 328° |
| 2026-04-29 23:07 | 27.09930 | -82.19841 | 15996 ft | 265 kts | 334° |
| 2026-04-29 23:07 | 27.11540 | -82.20783 | 15990 ft | 265 kts | 333° |
| 2026-04-29 23:08 | 27.13184 | -82.21767 | 15985 ft | 265 kts | 333° |
| 2026-04-29 23:08 | 27.14790 | -82.22729 | 15994 ft | 265 kts | 333° |
| 2026-04-29 23:08 | 27.16414 | -82.23699 | 15991 ft | 264 kts | 333° |
| 2026-04-29 23:08 | 27.18037 | -82.24667 | 15991 ft | 264 kts | 333° |
| 2026-04-29 23:09 | 27.19659 | -82.25635 | 15992 ft | 264 kts | 333° |
| 2026-04-29 23:09 | 27.21276 | -82.26603 | 15994 ft | 264 kts | 333° |
| 2026-04-29 23:09 | 27.22897 | -82.27570 | 15995 ft | 264 kts | 333° |
| 2026-04-29 23:09 | 27.24517 | -82.28538 | 15989 ft | 264 kts | 333° |
| 2026-04-29 23:10 | 27.26138 | -82.29508 | 15998 ft | 264 kts | 333° |
| 2026-04-29 23:10 | 27.27764 | -82.30481 | 15999 ft | 264 kts | 333° |
| 2026-04-29 23:10 | 27.29385 | -82.31452 | 16003 ft | 264 kts | 333° |
| 2026-04-29 23:10 | 27.31012 | -82.32424 | 16003 ft | 264 kts | 333° |
| 2026-04-29 23:11 | 27.32636 | -82.33398 | 15999 ft | 264 kts | 333° |
| 2026-04-29 23:11 | 27.34258 | -82.34370 | 15994 ft | 264 kts | 333° |
| 2026-04-29 23:11 | 27.35884 | -82.35344 | 16002 ft | 264 kts | 333° |
| 2026-04-29 23:11 | 27.37501 | -82.36314 | 16001 ft | 264 kts | 333° |
| 2026-04-29 23:12 | 27.39107 | -82.37275 | 16000 ft | 264 kts | 333° |
| 2026-04-29 23:12 | 27.40722 | -82.38244 | 16000 ft | 264 kts | 333° |
| 2026-04-29 23:12 | 27.42344 | -82.39218 | 16001 ft | 264 kts | 333° |
| 2026-04-29 23:12 | 27.43962 | -82.40189 | 15996 ft | 263 kts | 333° |
| 2026-04-29 23:13 | 27.45578 | -82.41160 | 15999 ft | 263 kts | 333° |
| 2026-04-29 23:13 | 27.47195 | -82.42131 | 16001 ft | 263 kts | 333° |
| 2026-04-29 23:13 | 27.48812 | -82.43102 | 15997 ft | 263 kts | 333° |
| 2026-04-29 23:13 | 27.50428 | -82.44074 | 16001 ft | 263 kts | 333° |
| 2026-04-29 23:14 | 27.52049 | -82.45048 | 16003 ft | 263 kts | 333° |
| 2026-04-29 23:14 | 27.53664 | -82.46018 | 16001 ft | 263 kts | 333° |
| 2026-04-29 23:14 | 27.55259 | -82.46978 | 16006 ft | 263 kts | 333° |
| 2026-04-29 23:14 | 27.56873 | -82.47950 | 15998 ft | 263 kts | 333° |
| 2026-04-29 23:15 | 27.58486 | -82.48922 | 16004 ft | 263 kts | 333° |
| 2026-04-29 23:15 | 27.60096 | -82.49893 | 15992 ft | 262 kts | 333° |
| 2026-04-29 23:15 | 27.61711 | -82.50864 | 15991 ft | 263 kts | 333° |
| 2026-04-29 23:15 | 27.63322 | -82.51835 | 15988 ft | 263 kts | 333° |
| 2026-04-29 23:16 | 27.64934 | -82.52807 | 15988 ft | 262 kts | 333° |
| 2026-04-29 23:16 | 27.66543 | -82.53779 | 15986 ft | 262 kts | 333° |
| 2026-04-29 23:16 | 27.68150 | -82.54749 | 15983 ft | 262 kts | 333° |
| 2026-04-29 23:16 | 27.69760 | -82.55720 | 15977 ft | 262 kts | 333° |
| 2026-04-29 23:17 | 27.71364 | -82.56688 | 15976 ft | 262 kts | 333° |
| 2026-04-29 23:17 | 27.72969 | -82.57656 | 15981 ft | 261 kts | 333° |
| 2026-04-29 23:17 | 27.74558 | -82.58617 | 15981 ft | 261 kts | 332° |
| 2026-04-29 23:17 | 27.76162 | -82.59585 | 15982 ft | 261 kts | 332° |
| 2026-04-29 23:18 | 27.77763 | -82.60553 | 15981 ft | 261 kts | 332° |
| 2026-04-29 23:18 | 27.79365 | -82.61521 | 15984 ft | 261 kts | 332° |
| 2026-04-29 23:18 | 27.80970 | -82.62491 | 15980 ft | 262 kts | 332° |
| 2026-04-29 23:18 | 27.82574 | -82.63463 | 15974 ft | 262 kts | 332° |
| 2026-04-29 23:19 | 27.84178 | -82.64433 | 15987 ft | 261 kts | 332° |
| 2026-04-29 23:19 | 27.85781 | -82.65404 | 15988 ft | 261 kts | 332° |
| 2026-04-29 23:19 | 27.87383 | -82.66373 | 15989 ft | 261 kts | 332° |
| 2026-04-29 23:19 | 27.88985 | -82.67345 | 15988 ft | 261 kts | 332° |
| 2026-04-29 23:20 | 27.90587 | -82.68315 | 15989 ft | 261 kts | 332° |
| 2026-04-29 23:20 | 27.92186 | -82.69293 | 15993 ft | 262 kts | 332° |
| 2026-04-29 23:20 | 27.93757 | -82.70274 | 15984 ft | 261 kts | 332° |
| 2026-04-29 23:20 | 27.95353 | -82.71266 | 15988 ft | 261 kts | 332° |
| 2026-04-29 23:21 | 27.96943 | -82.72253 | 15998 ft | 261 kts | 332° |
| 2026-04-29 23:21 | 27.98535 | -82.73238 | 15996 ft | 261 kts | 332° |
| 2026-04-29 23:21 | 28.00129 | -82.74228 | 16001 ft | 261 kts | 332° |
| 2026-04-29 23:21 | 28.01183 | -82.74882 | 16001 ft | 261 kts | 332° |
| 2026-04-29 23:22 | 28.02773 | -82.75870 | 15999 ft | 261 kts | 332° |
| 2026-04-29 23:22 | 28.04363 | -82.76857 | 15999 ft | 260 kts | 332° |
| 2026-04-29 23:22 | 28.05955 | -82.77846 | 16001 ft | 260 kts | 332° |
| 2026-04-29 23:22 | 28.08060 | -82.79155 | 15997 ft | 261 kts | 332° |
| 2026-04-29 23:23 | 28.09135 | -82.79823 | 15998 ft | 260 kts | 332° |
| 2026-04-29 23:23 | 28.10722 | -82.80809 | 15990 ft | 260 kts | 332° |
| 2026-04-29 23:23 | 28.12310 | -82.81797 | 16000 ft | 260 kts | 332° |
| 2026-04-29 23:23 | 28.13889 | -82.82780 | 15999 ft | 259 kts | 332° |
| 2026-04-29 23:24 | 28.15456 | -82.83756 | 16002 ft | 259 kts | 331° |
| 2026-04-29 23:24 | 28.17034 | -82.84738 | 16006 ft | 259 kts | 332° |
| 2026-04-29 23:24 | 28.18617 | -82.85725 | 16002 ft | 260 kts | 331° |
| 2026-04-29 23:24 | 28.20200 | -82.86710 | 16009 ft | 259 kts | 331° |
| 2026-04-29 23:25 | 28.21780 | -82.87696 | 16008 ft | 259 kts | 331° |
| 2026-04-29 23:25 | 28.23360 | -82.88681 | 16009 ft | 259 kts | 331° |
| 2026-04-29 23:25 | 28.24939 | -82.89667 | 16011 ft | 259 kts | 331° |
| 2026-04-29 23:25 | 28.26522 | -82.90655 | 16006 ft | 259 kts | 331° |
| 2026-04-29 23:26 | 28.28101 | -82.91641 | 16009 ft | 259 kts | 331° |
| 2026-04-29 23:26 | 28.29680 | -82.92627 | 16013 ft | 259 kts | 331° |
| 2026-04-29 23:26 | 28.31260 | -82.93615 | 16016 ft | 259 kts | 331° |
| 2026-04-29 23:26 | 28.32844 | -82.94604 | 16017 ft | 259 kts | 331° |
| 2026-04-29 23:27 | 28.34426 | -82.95594 | 16011 ft | 259 kts | 331° |
| 2026-04-29 23:27 | 28.36006 | -82.96582 | 16017 ft | 259 kts | 331° |
| 2026-04-29 23:27 | 28.37566 | -82.97558 | 16013 ft | 259 kts | 331° |
| 2026-04-29 23:27 | 28.39146 | -82.98547 | 16018 ft | 259 kts | 331° |
| 2026-04-29 23:28 | 28.40726 | -82.99537 | 16018 ft | 259 kts | 331° |
| 2026-04-29 23:28 | 28.42311 | -83.00529 | 16018 ft | 260 kts | 331° |
| 2026-04-29 23:28 | 28.43892 | -83.01520 | 16023 ft | 260 kts | 331° |
| 2026-04-29 23:28 | 28.45478 | -83.02513 | 16021 ft | 260 kts | 331° |
| 2026-04-29 23:29 | 28.47063 | -83.03507 | 16022 ft | 260 kts | 331° |
| 2026-04-29 23:29 | 28.48645 | -83.04499 | 16018 ft | 260 kts | 331° |
| 2026-04-29 23:29 | 28.50228 | -83.05492 | 16020 ft | 260 kts | 331° |
| 2026-04-29 23:29 | 28.51810 | -83.06485 | 16022 ft | 260 kts | 330° |
| 2026-04-29 23:30 | 28.53397 | -83.07481 | 16022 ft | 260 kts | 330° |
| 2026-04-29 23:30 | 28.54980 | -83.08475 | 16019 ft | 260 kts | 330° |
| 2026-04-29 23:30 | 28.56547 | -83.09459 | 16021 ft | 260 kts | 330° |
| 2026-04-29 23:30 | 28.58131 | -83.10456 | 16015 ft | 260 kts | 330° |
| 2026-04-29 23:31 | 28.59718 | -83.11453 | 16019 ft | 260 kts | 330° |
| 2026-04-29 23:31 | 28.61299 | -83.12448 | 16020 ft | 260 kts | 330° |
| 2026-04-29 23:31 | 28.62884 | -83.13444 | 16023 ft | 260 kts | 330° |
| 2026-04-29 23:31 | 28.64469 | -83.14442 | 16023 ft | 260 kts | 330° |
| 2026-04-29 23:32 | 28.66054 | -83.15439 | 16021 ft | 260 kts | 330° |
| 2026-04-29 23:32 | 28.67639 | -83.16438 | 16021 ft | 260 kts | 330° |
| 2026-04-29 23:32 | 28.69225 | -83.17436 | 16021 ft | 260 kts | 330° |
| 2026-04-29 23:32 | 28.70810 | -83.18436 | 16021 ft | 260 kts | 330° |
| 2026-04-29 23:33 | 28.72396 | -83.19435 | 16020 ft | 260 kts | 330° |
| 2026-04-29 23:33 | 28.73985 | -83.20438 | 16020 ft | 260 kts | 330° |
| 2026-04-29 23:33 | 28.75575 | -83.21440 | 16021 ft | 261 kts | 330° |
| 2026-04-29 23:33 | 28.77143 | -83.22430 | 16021 ft | 260 kts | 330° |
| 2026-04-29 23:34 | 28.78728 | -83.23430 | 16021 ft | 260 kts | 330° |
| 2026-04-29 23:34 | 28.80320 | -83.24436 | 16020 ft | 260 kts | 330° |
| 2026-04-29 23:34 | 28.81905 | -83.25436 | 16021 ft | 260 kts | 330° |
| 2026-04-29 23:34 | 28.83489 | -83.26438 | 16019 ft | 260 kts | 330° |
| 2026-04-29 23:35 | 28.85074 | -83.27439 | 16020 ft | 260 kts | 330° |
| 2026-04-29 23:35 | 28.86661 | -83.28444 | 16021 ft | 260 kts | 330° |
| 2026-04-29 23:35 | 28.88245 | -83.29446 | 16020 ft | 260 kts | 330° |
| 2026-04-29 23:35 | 28.89829 | -83.30448 | 16020 ft | 260 kts | 330° |
| 2026-04-29 23:36 | 28.91413 | -83.31450 | 16019 ft | 260 kts | 330° |
| 2026-04-29 23:36 | 28.92978 | -83.32442 | 16020 ft | 260 kts | 330° |
| 2026-04-29 23:36 | 28.94562 | -83.33445 | 16019 ft | 260 kts | 329° |
| 2026-04-29 23:36 | 28.96145 | -83.34449 | 16019 ft | 260 kts | 329° |
| 2026-04-29 23:37 | 28.97729 | -83.35452 | 16021 ft | 260 kts | 329° |
| 2026-04-29 23:37 | 28.99311 | -83.36456 | 16021 ft | 260 kts | 329° |
| 2026-04-29 23:37 | 29.00897 | -83.37461 | 16022 ft | 260 kts | 329° |
| 2026-04-29 23:37 | 29.02478 | -83.38465 | 16020 ft | 260 kts | 329° |
| 2026-04-29 23:38 | 29.04060 | -83.39468 | 16021 ft | 260 kts | 329° |
| 2026-04-29 23:38 | 29.05642 | -83.40475 | 16021 ft | 260 kts | 329° |
| 2026-04-29 23:38 | 29.07223 | -83.41478 | 16020 ft | 260 kts | 329° |
| 2026-04-29 23:38 | 29.08803 | -83.42482 | 16022 ft | 260 kts | 329° |
| 2026-04-29 23:39 | 29.10383 | -83.43486 | 16023 ft | 260 kts | 329° |
| 2026-04-29 23:39 | 29.11941 | -83.44478 | 16023 ft | 260 kts | 329° |
| 2026-04-29 23:39 | 29.13521 | -83.45482 | 16022 ft | 260 kts | 329° |
| 2026-04-29 23:39 | 29.15103 | -83.46490 | 16021 ft | 260 kts | 329° |
| 2026-04-29 23:40 | 29.16683 | -83.47495 | 16022 ft | 260 kts | 329° |
| 2026-04-29 23:40 | 29.18261 | -83.48501 | 16020 ft | 260 kts | 329° |
| 2026-04-29 23:40 | 29.19840 | -83.49507 | 16019 ft | 260 kts | 329° |
| 2026-04-29 23:40 | 29.21418 | -83.50512 | 16017 ft | 259 kts | 329° |
| 2026-04-29 23:41 | 29.22993 | -83.51517 | 16015 ft | 259 kts | 329° |
| 2026-04-29 23:41 | 29.24571 | -83.52523 | 16014 ft | 259 kts | 329° |
| 2026-04-29 23:41 | 29.26149 | -83.53530 | 16015 ft | 259 kts | 328° |
| 2026-04-29 23:41 | 29.27724 | -83.54535 | 16015 ft | 259 kts | 328° |
| 2026-04-29 23:42 | 29.29278 | -83.55527 | 16016 ft | 259 kts | 328° |
| 2026-04-29 23:42 | 29.30858 | -83.56536 | 16017 ft | 259 kts | 328° |
| 2026-04-29 23:42 | 29.32432 | -83.57542 | 16014 ft | 259 kts | 328° |
| 2026-04-29 23:42 | 29.34002 | -83.58545 | 16015 ft | 259 kts | 328° |
| 2026-04-29 23:43 | 29.35576 | -83.59552 | 16016 ft | 259 kts | 328° |
| 2026-04-29 23:43 | 29.37149 | -83.60558 | 16016 ft | 259 kts | 328° |
| 2026-04-29 23:43 | 29.38723 | -83.61565 | 16010 ft | 259 kts | 328° |
| 2026-04-29 23:43 | 29.40295 | -83.62571 | 16013 ft | 259 kts | 328° |
| 2026-04-29 23:44 | 29.41868 | -83.63578 | 16013 ft | 259 kts | 328° |
| 2026-04-29 23:44 | 29.43440 | -83.64586 | 16012 ft | 259 kts | 328° |
| 2026-04-29 23:44 | 29.45013 | -83.65593 | 16012 ft | 259 kts | 328° |
| 2026-04-29 23:44 | 29.46585 | -83.66600 | 16011 ft | 259 kts | 328° |
| 2026-04-29 23:45 | 29.48155 | -83.67608 | 16013 ft | 259 kts | 328° |
| 2026-04-29 23:45 | 29.49726 | -83.68615 | 16010 ft | 259 kts | 328° |
| 2026-04-29 23:45 | 29.51297 | -83.69623 | 16011 ft | 259 kts | 328° |
| 2026-04-29 23:45 | 29.52868 | -83.70631 | 16014 ft | 259 kts | 328° |
| 2026-04-29 23:46 | 29.54438 | -83.71639 | 16012 ft | 259 kts | 328° |
| 2026-04-29 23:46 | 29.56007 | -83.72646 | 16013 ft | 258 kts | 328° |
| 2026-04-29 23:46 | 29.57555 | -83.73642 | 16008 ft | 258 kts | 328° |
| 2026-04-29 23:46 | 29.59124 | -83.74650 | 16009 ft | 258 kts | 328° |
| 2026-04-29 23:47 | 29.60696 | -83.75661 | 16011 ft | 258 kts | 328° |
| 2026-04-29 23:47 | 29.62265 | -83.76670 | 16011 ft | 258 kts | 328° |
| 2026-04-29 23:47 | 29.63837 | -83.77682 | 16006 ft | 258 kts | 328° |
| 2026-04-29 23:47 | 29.65405 | -83.78691 | 16008 ft | 258 kts | 327° |
| 2026-04-29 23:48 | 29.66972 | -83.79700 | 16007 ft | 258 kts | 327° |
| 2026-04-29 23:48 | 29.68522 | -83.80698 | 16006 ft | 258 kts | 327° |
| 2026-04-29 23:48 | 29.70090 | -83.81709 | 16003 ft | 258 kts | 327° |
| 2026-04-29 23:48 | 29.71657 | -83.82719 | 16002 ft | 258 kts | 327° |
| 2026-04-29 23:49 | 29.73226 | -83.83731 | 16003 ft | 258 kts | 327° |
| 2026-04-29 23:49 | 29.74792 | -83.84741 | 16005 ft | 258 kts | 327° |
| 2026-04-29 23:49 | 29.76358 | -83.85751 | 16002 ft | 258 kts | 327° |
| 2026-04-29 23:49 | 29.77922 | -83.86761 | 16000 ft | 258 kts | 327° |
| 2026-04-29 23:50 | 29.79490 | -83.87773 | 16001 ft | 258 kts | 327° |
| 2026-04-29 23:50 | 29.81056 | -83.88786 | 16001 ft | 258 kts | 327° |
| 2026-04-29 23:50 | 29.84186 | -83.90809 | 16001 ft | 257 kts | 327° |
| 2026-04-29 23:51 | 29.85726 | -83.91806 | 16002 ft | 257 kts | 327° |
| 2026-04-29 23:51 | 29.87287 | -83.92816 | 16002 ft | 257 kts | 327° |
| 2026-04-29 23:51 | 29.88848 | -83.93825 | 16000 ft | 257 kts | 327° |
| 2026-04-29 23:51 | 29.90407 | -83.94836 | 15998 ft | 257 kts | 327° |
| 2026-04-29 23:52 | 29.91971 | -83.95849 | 15907 ft | 260 kts | 327° |
| 2026-04-29 23:52 | 29.93569 | -83.96887 | 15682 ft | 266 kts | 327° |
| 2026-04-29 23:52 | 29.95196 | -83.97939 | 15447 ft | 270 kts | 327° |
| 2026-04-29 23:52 | 29.96839 | -83.99004 | 15209 ft | 272 kts | 327° |
| 2026-04-29 23:53 | 29.98496 | -84.00079 | 14975 ft | 273 kts | 327° |
| 2026-04-29 23:53 | 30.00155 | -84.01156 | 14732 ft | 274 kts | 327° |
| 2026-04-29 23:53 | 30.01817 | -84.02235 | 14507 ft | 274 kts | 327° |
| 2026-04-29 23:53 | 30.03458 | -84.03302 | 14277 ft | 275 kts | 327° |
| 2026-04-29 23:54 | 30.05124 | -84.04383 | 14040 ft | 275 kts | 327° |
| 2026-04-29 23:54 | 30.06788 | -84.05467 | 13807 ft | 275 kts | 327° |
| 2026-04-29 23:54 | 30.08458 | -84.06552 | 13563 ft | 275 kts | 327° |
| 2026-04-29 23:54 | 30.10118 | -84.07645 | 13298 ft | 274 kts | 327° |
| 2026-04-29 23:55 | 30.11773 | -84.08743 | 13037 ft | 274 kts | 327° |
| 2026-04-29 23:55 | 30.13449 | -84.09783 | 12784 ft | 276 kts | 335° |
| 2026-04-29 23:55 | 30.15348 | -84.10235 | 12536 ft | 280 kts | 349° |
| 2026-04-29 23:55 | 30.17266 | -84.10519 | 12360 ft | 276 kts | 346° |
| 2026-04-29 23:56 | 30.19124 | -84.11023 | 12211 ft | 272 kts | 340° |
| 2026-04-29 23:56 | 30.20927 | -84.11645 | 12063 ft | 270 kts | 340° |
| 2026-04-29 23:56 | 30.22748 | -84.12216 | 11911 ft | 271 kts | 342° |
| 2026-04-29 23:56 | 30.24576 | -84.12751 | 11692 ft | 273 kts | 342° |
| 2026-04-29 23:57 | 30.26429 | -84.13309 | 11337 ft | 277 kts | 342° |
| 2026-04-29 23:57 | 30.28300 | -84.13879 | 11009 ft | 278 kts | 342° |
| 2026-04-29 23:57 | 30.30170 | -84.14449 | 10660 ft | 277 kts | 342° |
| 2026-04-29 23:57 | 30.32030 | -84.15010 | 10292 ft | 275 kts | 342° |
| 2026-04-29 23:58 | 30.33880 | -84.15570 | 9932 ft | 275 kts | 342° |
| 2026-04-29 23:58 | 30.35702 | -84.16128 | 9551 ft | 273 kts | 342° |
| 2026-04-29 23:58 | 30.37534 | -84.16682 | 9184 ft | 271 kts | 342° |
| 2026-04-29 23:58 | 30.39358 | -84.17233 | 8825 ft | 269 kts | 342° |
| 2026-04-29 23:59 | 30.41164 | -84.17788 | 8467 ft | 268 kts | 342° |
| 2026-04-29 23:59 | 30.42959 | -84.18336 | 8121 ft | 266 kts | 342° |
| 2026-04-29 23:59 | 30.44740 | -84.18875 | 7792 ft | 263 kts | 343° |
| 2026-04-29 23:59 | 30.46504 | -84.19413 | 7447 ft | 261 kts | 343° |
| 2026-04-30 00:00 | 30.48259 | -84.19945 | 7100 ft | 260 kts | 343° |
| 2026-04-30 00:00 | 30.50005 | -84.20477 | 6751 ft | 258 kts | 343° |
| 2026-04-30 00:00 | 30.51741 | -84.21007 | 6413 ft | 257 kts | 343° |
| 2026-04-30 00:00 | 30.53465 | -84.21532 | 6058 ft | 255 kts | 344° |
| 2026-04-30 00:01 | 30.55185 | -84.22054 | 5717 ft | 254 kts | 343° |
| 2026-04-30 00:01 | 30.56891 | -84.22580 | 5373 ft | 253 kts | 343° |
| 2026-04-30 00:01 | 30.58494 | -84.23349 | 5042 ft | 249 kts | 326° |
| 2026-04-30 00:01 | 30.59812 | -84.24629 | 4718 ft | 248 kts | 311° |
| 2026-04-30 00:02 | 30.60758 | -84.26296 | 4374 ft | 248 kts | 295° |
| 2026-04-30 00:02 | 30.61238 | -84.28108 | 4059 ft | 213 kts | 278° |
| 2026-04-30 00:02 | 30.61301 | -84.29642 | 3870 ft | 179 kts | 269° |
| 2026-04-30 00:02 | 30.61288 | -84.31065 | 3663 ft | 167 kts | 271° |
| 2026-04-30 00:03 | 30.61290 | -84.32349 | 3478 ft | 153 kts | 270° |
| 2026-04-30 00:03 | 30.61171 | -84.33570 | 3280 ft | 153 kts | 254° |
| 2026-04-30 00:03 | 30.60691 | -84.34664 | 3084 ft | 153 kts | 236° |
| 2026-04-30 00:03 | 30.59924 | -84.35499 | 2935 ft | 150 kts | 217° |
| 2026-04-30 00:04 | 30.58963 | -84.35982 | 2834 ft | 154 kts | 198° |
| 2026-04-30 00:04 | 30.57885 | -84.36070 | 2751 ft | 157 kts | 184° |
| 2026-04-30 00:04 | 30.56778 | -84.36057 | 2638 ft | 156 kts | 184° |
| 2026-04-30 00:04 | 30.55746 | -84.36045 | 2518 ft | 137 kts | 185° |
| 2026-04-30 00:05 | 30.54845 | -84.36033 | 2411 ft | 123 kts | 186° |
| 2026-04-30 00:05 | 30.54006 | -84.36035 | 2324 ft | 124 kts | 187° |
| 2026-04-30 00:05 | 30.53145 | -84.36026 | 2233 ft | 123 kts | 186° |
| 2026-04-30 00:05 | 30.52299 | -84.36012 | 2147 ft | 120 kts | 185° |
| 2026-04-30 00:06 | 30.51468 | -84.36017 | 2026 ft | 121 kts | 186° |
| 2026-04-30 00:06 | 30.50625 | -84.35988 | 1874 ft | 121 kts | 187° |
| 2026-04-30 00:06 | 30.49799 | -84.35975 | 1719 ft | 113 kts | 187° |
| 2026-04-30 00:06 | 30.49089 | -84.35970 | 1608 ft | 100 kts | 188° |
| 2026-04-30 00:07 | 30.48411 | -84.35975 | 1462 ft | 96 kts | 187° |
| 2026-04-30 00:07 | 30.47744 | -84.35963 | 1345 ft | 96 kts | 186° |
| 2026-04-30 00:07 | 30.47080 | -84.35954 | 1221 ft | 95 kts | 187° |
| 2026-04-30 00:07 | 30.46417 | -84.35946 | 1087 ft | 95 kts | 184° |
| 2026-04-30 00:08 | 30.45735 | -84.35943 | 970 ft | 102 kts | 186° |
| 2026-04-30 00:08 | 30.45040 | -84.35939 | 849 ft | 97 kts | 186° |
| 2026-04-30 00:08 | 30.44387 | -84.35926 | 724 ft | 90 kts | 189° |
| 2026-04-30 00:08 | 30.43757 | -84.35923 | 609 ft | 91 kts | 184° |
| 2026-04-30 00:09 | 30.43119 | -84.35905 | 498 ft | 95 kts | 186° |
| 2026-04-30 00:09 | 30.42436 | -84.35900 | 429 ft | 100 kts | 187° |
| 2026-04-30 00:09 | 30.41769 | -84.35898 | 253 ft | 95 kts | 181° |
| 2026-04-30 00:09 | 30.41118 | -84.35915 | 138 ft | 91 kts | 179° |
| 2026-04-30 00:10 | 30.40531 | -84.35896 | 77 ft | 76 kts | 180° |
| 2026-04-30 00:10 | 30.40122 | -84.35891 | 64 ft | 24 kts | 179° |
| 2026-04-30 00:10 | 30.40021 | -84.35854 | 67 ft | 10 kts | 86° |
| 2026-04-30 00:10 | 30.40081 | -84.35799 | 67 ft | 11 kts | 31° |
| 2026-04-30 00:11 | 30.40143 | -84.35712 | 68 ft | 18 kts | 95° |
| 2026-04-30 00:11 | 30.40109 | -84.35577 | 69 ft | 20 kts | 148° |
| 2026-04-30 00:11 | 30.40023 | -84.35548 | 67 ft | 11 kts | 174° |
| 2026-04-30 00:11 | 30.40003 | -84.35546 | 68 ft | 0 kts | 174° |